Ancora, New Jersey
Current Conditions -  °F | °C
As of 5:39 PM on Wednesday 26 Nov 2014 (Local Time) from KACY Reporting Station
Light Snow Light Snow  
Wind Chill: -3°   Ceiling: 700
Heat Index:   Visibility: 2.5mi
Dew Point:   Wind: 20mph
Humidity: 96%   Direction: 340°NNW
Pressure: 29.76"   Gusts: NA
Location:  39.637°N, 74.7602°W
Report Text: KACY 262239Z 34017KT 2 1/2SM -SN BR OVC007 03/02 A2976 RMK AO2 CIG 006V009 P0002 T00280022
Loading
Personal Weather Stations






























Interactive Weather Map New forecast layout! Learn more

10-Day Weather Forecast

Advertisements
Track Severe Weather on mobile